createdAt,value
2022-12-15T00:02:42.125Z,6.95
2022-12-15T00:05:32.430Z,6.70
2022-12-15T00:08:31.901Z,6.57
2022-12-15T00:11:23.250Z,5.93
2022-12-15T00:14:13.753Z,5.78
2022-12-15T00:17:04.052Z,6.07
2022-12-15T00:19:54.358Z,5.85
2022-12-15T00:22:44.669Z,6.28
2022-12-15T00:25:35.357Z,6.05
2022-12-15T00:28:25.782Z,5.63
2022-12-15T00:31:17.242Z,6.30
2022-12-15T00:34:08.237Z,5.72
2022-12-15T00:36:58.725Z,5.83
2022-12-15T00:39:30.728Z,5.32
2022-12-15T00:42:02.699Z,5.63
2022-12-15T00:44:34.753Z,6.03
2022-12-15T00:47:06.753Z,5.38
2022-12-15T00:49:57.585Z,4.70
2022-12-15T00:52:48.225Z,4.60
2022-12-15T00:55:38.502Z,5.00
2022-12-15T00:58:28.777Z,4.95
2022-12-15T01:01:28.400Z,5.07
2022-12-15T01:04:19.291Z,4.55
2022-12-15T01:07:09.713Z,4.72
2022-12-15T01:10:00.077Z,4.63
2022-12-15T01:12:50.909Z,4.60
2022-12-15T01:15:41.257Z,5.13
2022-12-15T01:18:31.540Z,4.85
2022-12-15T01:21:06.177Z,4.82
2022-12-15T01:23:39.708Z,4.43
2022-12-15T01:26:11.617Z,5.47
2022-12-15T01:28:43.529Z,4.53
2022-12-15T01:31:15.509Z,4.45
2022-12-15T01:33:47.481Z,4.93
2022-12-15T01:36:19.540Z,4.88
2022-12-15T01:38:54.256Z,5.07
2022-12-15T01:41:26.773Z,5.25
2022-12-15T01:44:18.661Z,4.97
2022-12-15T01:49:29.160Z,5.20
2022-12-15T01:52:02.699Z,5.10
2022-12-15T01:54:57.943Z,5.00
2022-12-15T01:57:32.597Z,4.30
2022-12-15T02:04:49.900Z,4.97
2022-12-15T02:07:49.829Z,5.00
2022-12-15T02:10:25.028Z,4.47
2022-12-15T02:13:18.510Z,4.97
2022-12-15T02:16:03.957Z,5.43
2022-12-15T02:18:48.163Z,5.38
2022-12-15T02:21:46.826Z,5.80
2022-12-15T02:24:21.680Z,5.00
2022-12-15T02:27:08.246Z,5.50
2022-12-15T02:30:15.101Z,5.38
2022-12-15T02:33:08.738Z,4.50
2022-12-15T02:35:59.388Z,4.78
2022-12-15T02:38:37.429Z,4.45
2022-12-15T02:41:30.857Z,4.45
2022-12-15T02:44:26.778Z,5.72
2022-12-15T02:47:19.939Z,3.92
2022-12-15T02:50:14.751Z,3.67
2022-12-15T02:53:08.278Z,3.35
2022-12-15T02:56:09.723Z,3.45
2022-12-15T02:58:47.378Z,3.28
2022-12-15T03:01:31.001Z,2.92
2022-12-15T03:04:06.638Z,2.97
2022-12-15T03:06:39.190Z,2.40
2022-12-15T03:09:12.553Z,2.58
2022-12-15T03:11:44.431Z,2.42
2022-12-15T03:14:16.586Z,2.40
2022-12-15T03:16:48.674Z,2.58
2022-12-15T03:19:21.954Z,2.53
2022-12-15T03:21:54.076Z,2.90
2022-12-15T03:24:26.048Z,2.30
2022-12-15T03:26:57.960Z,2.40
2022-12-15T03:29:29.917Z,2.67
2022-12-15T03:32:02.013Z,2.08
2022-12-15T03:34:34.026Z,2.00
2022-12-15T03:37:05.876Z,1.80
2022-12-15T03:39:37.821Z,1.65
2022-12-15T03:42:09.695Z,1.52
2022-12-15T03:44:41.603Z,2.00
2022-12-15T03:47:13.470Z,2.10
2022-12-15T03:49:45.385Z,1.95
2022-12-15T03:52:17.345Z,2.20
2022-12-15T03:54:49.390Z,2.45
2022-12-15T03:57:21.376Z,2.80
2022-12-15T03:59:53.333Z,2.90
2022-12-15T04:02:25.430Z,3.20
2022-12-15T04:04:57.520Z,3.00
2022-12-15T04:07:29.414Z,2.60
2022-12-15T04:10:01.250Z,3.22
2022-12-15T04:12:33.281Z,2.85
2022-12-15T04:15:09.351Z,4.82
2022-12-15T04:17:41.946Z,4.97
2022-12-15T04:20:13.944Z,5.93
2022-12-15T04:22:48.241Z,5.72
2022-12-15T04:25:43.141Z,5.65
2022-12-15T04:28:33.465Z,6.80
2022-12-15T04:31:50.902Z,7.38
2022-12-15T04:34:43.279Z,9.70
2022-12-15T04:37:33.933Z,11.07
2022-12-15T04:40:25.311Z,10.73
2022-12-15T04:43:15.625Z,11.60
2022-12-15T04:46:06.006Z,12.68
2022-12-15T04:48:56.320Z,12.77
2022-12-15T04:51:46.707Z,12.90
2022-12-15T04:54:36.999Z,12.60
2022-12-15T04:57:27.443Z,11.80
2022-12-15T05:00:17.910Z,13.45
2022-12-15T05:03:08.993Z,12.55
2022-12-15T05:06:02.245Z,12.48
2022-12-15T05:08:52.468Z,11.82
2022-12-15T05:11:42.852Z,12.32
2022-12-15T05:14:33.518Z,11.07
2022-12-15T05:17:23.938Z,11.45
2022-12-15T05:20:14.352Z,11.45
2022-12-15T05:23:04.855Z,11.95
2022-12-15T05:25:55.111Z,11.00
2022-12-15T05:28:45.877Z,11.68
2022-12-15T05:31:37.633Z,11.38
2022-12-15T05:34:09.616Z,11.43
2022-12-15T05:36:41.606Z,11.00
2022-12-15T05:39:13.666Z,10.65
2022-12-15T05:41:45.733Z,11.20
2022-12-15T05:44:18.283Z,11.73
2022-12-15T05:46:50.318Z,10.80
2022-12-15T05:49:23.342Z,10.50
2022-12-15T05:51:55.309Z,11.10
2022-12-15T05:54:27.225Z,10.88
2022-12-15T05:56:59.123Z,11.88
2022-12-15T05:59:31.019Z,11.02
2022-12-15T06:02:03.168Z,10.48
2022-12-15T06:04:35.176Z,9.80
2022-12-15T06:07:10.160Z,9.90
2022-12-15T06:09:42.070Z,9.90
2022-12-15T06:12:13.898Z,10.50
2022-12-15T06:14:45.879Z,11.05
2022-12-15T06:17:40.721Z,10.23
2022-12-15T06:20:12.626Z,9.82
2022-12-15T06:22:49.711Z,10.15
2022-12-15T06:25:22.087Z,9.98
2022-12-15T06:27:58.371Z,8.98
2022-12-15T06:30:33.775Z,8.70
2022-12-15T06:33:05.773Z,9.23
2022-12-15T06:35:38.643Z,8.40
2022-12-15T06:38:10.699Z,8.25
2022-12-15T06:40:42.621Z,8.43
2022-12-15T06:43:14.585Z,8.32
2022-12-15T06:45:50.421Z,7.35
2022-12-15T06:48:24.218Z,7.75
2022-12-15T06:50:56.719Z,9.43
2022-12-15T06:53:29.026Z,7.93
2022-12-15T06:56:04.092Z,8.05
2022-12-15T06:58:35.932Z,9.13
2022-12-15T07:01:08.406Z,9.38
2022-12-15T07:03:41.032Z,9.10
2022-12-15T07:06:15.579Z,10.25
2022-12-15T07:08:53.114Z,9.57
2022-12-15T07:11:25.090Z,9.70
2022-12-15T07:13:56.978Z,8.88
2022-12-15T07:16:29.026Z,8.32
2022-12-15T07:19:00.905Z,9.80
2022-12-15T07:21:32.802Z,10.35
2022-12-15T07:24:05.473Z,10.40
2022-12-15T07:26:37.592Z,15.60
2022-12-15T07:29:10.376Z,22.77
2022-12-15T07:31:42.452Z,16.17
2022-12-15T07:34:14.457Z,13.07
2022-12-15T07:36:51.906Z,12.77
2022-12-15T07:39:24.601Z,10.93
2022-12-15T07:41:56.592Z,10.00
2022-12-15T07:44:29.287Z,9.98
2022-12-15T07:47:01.177Z,10.15
2022-12-15T07:49:33.101Z,11.10
2022-12-15T07:52:05.124Z,10.43
2022-12-15T07:54:37.109Z,10.65
2022-12-15T07:57:09.061Z,16.00
2022-12-15T07:59:40.931Z,15.55
2022-12-15T08:02:14.099Z,12.02
2022-12-15T08:04:46.078Z,12.25
2022-12-15T08:07:18.140Z,10.85
2022-12-15T08:09:50.050Z,12.10
2022-12-15T08:12:21.918Z,11.95
2022-12-15T08:14:53.931Z,12.15
2022-12-15T08:17:25.789Z,14.27
2022-12-15T08:19:58.993Z,13.93
2022-12-15T08:22:30.976Z,14.65
2022-12-15T08:25:02.913Z,15.48
2022-12-15T08:27:35.811Z,14.80
2022-12-15T08:30:08.541Z,14.02
2022-12-15T08:32:40.441Z,14.48
2022-12-15T08:35:39.034Z,13.70
2022-12-15T08:38:05.850Z,10.88
2022-12-15T08:40:38.109Z,11.30
2022-12-15T08:43:10.051Z,11.40
2022-12-15T08:45:42.522Z,11.77
2022-12-15T08:48:14.510Z,11.50
2022-12-15T08:50:46.330Z,12.98
2022-12-15T08:53:33.585Z,13.20
2022-12-15T08:56:08.734Z,13.18
2022-12-15T08:58:40.720Z,13.90
2022-12-15T09:01:22.495Z,13.55
2022-12-15T09:03:56.545Z,13.73
2022-12-15T09:06:35.515Z,14.05
2022-12-15T09:09:10.708Z,15.27
2022-12-15T09:11:42.621Z,16.23
2022-12-15T09:14:14.928Z,15.98
2022-12-15T09:16:50.676Z,18.50
2022-12-15T09:19:22.766Z,20.50
2022-12-15T09:21:54.840Z,19.73
2022-12-15T09:24:34.698Z,20.15
2022-12-15T09:27:07.556Z,19.90
2022-12-15T09:29:39.474Z,19.92
2022-12-15T09:32:14.283Z,20.13
2022-12-15T09:34:46.456Z,21.92
2022-12-15T09:37:18.702Z,20.65
2022-12-15T09:39:50.679Z,21.70
2022-12-15T09:42:28.585Z,21.63
2022-12-15T09:45:07.742Z,23.10
2022-12-15T09:47:57.279Z,23.65
2022-12-15T09:50:38.828Z,23.38
2022-12-15T09:53:45.601Z,24.05
2022-12-15T09:56:18.068Z,22.58
2022-12-15T09:59:13.714Z,23.60
2022-12-15T10:01:53.636Z,22.42
2022-12-15T10:04:43.729Z,23.50
2022-12-15T10:07:26.897Z,22.55
2022-12-15T10:09:58.930Z,25.10
2022-12-15T10:12:35.738Z,24.38
2022-12-15T10:15:29.187Z,22.65
2022-12-15T10:18:12.463Z,20.77
2022-12-15T10:20:44.336Z,19.98
2022-12-15T10:23:20.811Z,20.10
2022-12-15T10:26:14.391Z,19.50
2022-12-15T10:29:11.042Z,18.95
2022-12-15T10:31:51.226Z,17.88
2022-12-15T10:34:27.770Z,17.75
2022-12-15T10:36:59.746Z,17.55
2022-12-15T10:39:46.041Z,17.00
2022-12-15T10:42:25.340Z,17.73
2022-12-15T10:44:58.921Z,18.65
2022-12-15T10:47:32.370Z,17.98
2022-12-15T10:50:24.705Z,18.65
2022-12-15T10:52:57.330Z,19.90
2022-12-15T10:55:29.162Z,20.15
2022-12-15T10:58:03.018Z,19.92
2022-12-15T11:00:35.121Z,19.15
2022-12-15T11:03:23.097Z,19.17
2022-12-15T11:05:57.070Z,18.98
2022-12-15T11:08:30.089Z,18.48
2022-12-15T11:11:26.080Z,16.58
2022-12-15T11:14:07.267Z,16.55
2022-12-15T11:16:48.887Z,17.85
2022-12-15T11:22:30.420Z,17.67
2022-12-15T11:25:24.597Z,18.90
2022-12-15T11:27:59.631Z,18.23
2022-12-15T11:30:42.447Z,18.08
2022-12-15T11:33:14.861Z,17.48
2022-12-15T11:35:46.661Z,17.92
2022-12-15T11:38:35.467Z,16.17
2022-12-15T11:41:30.587Z,17.95
2022-12-15T11:44:44.007Z,16.08
2022-12-15T11:47:40.796Z,20.83
2022-12-15T11:50:34.172Z,18.60
2022-12-15T11:53:14.791Z,19.48
2022-12-15T11:56:05.557Z,22.48
2022-12-15T11:58:56.420Z,19.80
2022-12-15T12:01:38.336Z,24.00
2022-12-15T12:04:34.552Z,39.08
2022-12-15T12:10:37.519Z,18.73
2022-12-15T12:13:21.246Z,16.47
2022-12-15T12:16:09.238Z,18.25
2022-12-15T12:19:06.099Z,18.98
2022-12-15T12:21:46.426Z,20.00
2022-12-15T12:24:54.910Z,19.02
2022-12-15T12:27:44.653Z,17.30
2022-12-15T12:30:23.385Z,16.73
2022-12-15T12:33:11.875Z,16.65
2022-12-15T12:35:51.699Z,18.73
2022-12-15T12:38:34.255Z,17.27
2022-12-15T12:41:18.676Z,16.73
2022-12-15T12:46:54.005Z,15.73
2022-12-15T12:50:03.731Z,15.90
2022-12-15T12:52:37.877Z,16.08
2022-12-15T12:55:14.433Z,16.33
2022-12-15T12:57:47.441Z,16.63
2022-12-15T13:00:28.166Z,16.08
2022-12-15T13:03:12.556Z,16.08
2022-12-15T13:05:46.741Z,16.17
2022-12-15T13:08:51.592Z,17.52
2022-12-15T13:11:49.118Z,18.05
2022-12-15T13:14:34.865Z,16.80
2022-12-15T13:17:28.240Z,18.35
2022-12-15T13:20:03.208Z,54.30
2022-12-15T13:22:40.009Z,23.63
2022-12-15T13:25:38.685Z,21.15
2022-12-15T13:28:19.126Z,18.77
2022-12-15T13:31:16.598Z,18.45
2022-12-15T13:33:53.858Z,20.67
2022-12-15T13:36:38.224Z,17.83
2022-12-15T13:39:19.409Z,19.42
2022-12-15T13:44:52.882Z,20.73
2022-12-15T13:47:30.156Z,19.98
2022-12-15T13:50:12.385Z,20.02
2022-12-15T13:56:03.659Z,26.20
2022-12-15T13:58:44.560Z,21.35
2022-12-15T14:01:30.170Z,20.27
2022-12-15T14:04:06.157Z,21.52
2022-12-15T14:06:44.089Z,20.05
2022-12-15T14:09:21.307Z,17.60
2022-12-15T14:14:49.833Z,14.93
2022-12-15T14:17:22.378Z,14.02
2022-12-15T14:19:54.261Z,14.23
2022-12-15T14:22:30.001Z,17.67
2022-12-15T14:25:22.493Z,19.63
2022-12-15T14:27:54.441Z,21.35
2022-12-15T14:30:33.132Z,22.08
2022-12-15T14:33:12.318Z,23.33
2022-12-15T14:35:50.132Z,24.00
2022-12-15T14:38:28.094Z,23.45
2022-12-15T14:41:03.609Z,22.40
2022-12-15T14:43:40.111Z,22.20
2022-12-15T14:46:23.697Z,27.13
2022-12-15T14:49:05.644Z,25.67
2022-12-15T14:51:48.548Z,24.90
2022-12-15T14:54:35.747Z,25.35
2022-12-15T14:57:28.247Z,24.35
2022-12-15T15:00:00.087Z,22.75
2022-12-15T15:02:32.048Z,22.02
2022-12-15T15:03:05.498Z,20.10
2022-12-15T15:03:07.047Z,17.80
2022-12-15T15:03:10.065Z,16.50
2022-12-15T15:03:16.258Z,19.42
2022-12-15T15:05:09.841Z,21.17
2022-12-15T15:07:45.651Z,17.88
2022-12-15T15:10:29.713Z,19.88
2022-12-15T15:13:05.984Z,14.30
2022-12-15T15:15:38.532Z,13.68
2022-12-15T15:18:15.526Z,13.35
2022-12-15T15:21:15.058Z,14.50
2022-12-15T15:24:20.170Z,15.70
2022-12-15T15:26:53.067Z,17.80
2022-12-15T15:29:39.429Z,20.52
2022-12-15T15:32:20.614Z,19.63
2022-12-15T15:34:52.558Z,19.55
2022-12-15T15:37:25.301Z,16.65
2022-12-15T15:39:57.143Z,16.30
2022-12-15T15:42:32.465Z,15.70
2022-12-15T15:45:05.320Z,14.82
2022-12-15T15:47:37.787Z,13.70
2022-12-15T15:50:14.581Z,12.93
2022-12-15T15:52:46.616Z,12.93
2022-12-15T15:55:29.488Z,13.90
2022-12-15T15:58:05.414Z,14.20
2022-12-15T16:00:37.430Z,13.68
2022-12-15T16:03:26.839Z,12.91
2022-12-15T16:05:59.028Z,13.38
2022-12-15T16:08:36.912Z,12.35
2022-12-15T16:11:12.208Z,12.00
2022-12-15T16:13:45.024Z,11.05
2022-12-15T16:16:21.591Z,10.18
2022-12-15T16:18:53.546Z,9.85
2022-12-15T16:21:27.863Z,12.40
2022-12-15T16:24:00.614Z,10.38
2022-12-15T16:26:34.084Z,8.13
2022-12-15T16:29:16.993Z,5.93
2022-12-15T16:31:50.253Z,6.78
2022-12-15T16:34:24.706Z,12.68
2022-12-15T16:36:59.790Z,7.28
2022-12-15T16:39:34.129Z,10.80
2022-12-15T16:42:10.719Z,8.23
2022-12-15T16:44:45.657Z,15.75
2022-12-15T16:47:17.555Z,18.50
2022-12-15T16:49:49.700Z,18.83
2022-12-15T16:52:24.427Z,18.10
2022-12-15T16:54:58.424Z,23.73
2022-12-15T16:57:30.359Z,21.98
2022-12-15T17:00:02.531Z,21.35
2022-12-15T17:02:42.050Z,20.73
2022-12-15T17:05:14.160Z,22.13
2022-12-15T17:07:55.841Z,21.65
2022-12-15T17:10:30.227Z,22.67
2022-12-15T17:13:24.207Z,23.40
2022-12-15T17:15:56.954Z,19.77
2022-12-15T17:18:29.696Z,21.55
2022-12-15T17:21:25.214Z,20.20
2022-12-15T17:24:03.661Z,23.92
2022-12-15T17:26:37.064Z,25.15
2022-12-15T17:29:16.394Z,20.65
2022-12-15T17:31:52.674Z,23.27
2022-12-15T17:34:32.347Z,23.33
2022-12-15T17:37:08.195Z,21.17
2022-12-15T17:39:51.708Z,22.52
2022-12-15T17:42:24.219Z,23.83
2022-12-15T17:44:56.713Z,24.90
2022-12-15T17:47:30.508Z,22.35
2022-12-15T17:50:02.457Z,19.60
2022-12-15T17:52:34.622Z,19.58
2022-12-15T17:55:22.462Z,19.70
2022-12-15T17:57:55.658Z,18.80
2022-12-15T18:00:32.756Z,21.30
2022-12-15T18:03:05.355Z,24.75
2022-12-15T18:05:38.514Z,15.73
2022-12-15T18:08:22.704Z,16.83
2022-12-15T18:10:58.564Z,19.98
2022-12-15T18:13:35.436Z,19.90
2022-12-15T18:16:07.968Z,18.95
2022-12-15T18:18:40.048Z,16.30
2022-12-15T18:21:15.431Z,12.35
2022-12-15T18:23:47.871Z,11.88
2022-12-15T18:26:21.023Z,11.40
2022-12-15T18:28:52.905Z,14.77
2022-12-15T18:31:27.077Z,16.63
2022-12-15T18:34:04.457Z,18.15
2022-12-15T18:36:37.088Z,14.85
2022-12-15T18:39:27.091Z,20.92
2022-12-15T18:41:59.137Z,15.52
2022-12-15T18:44:31.965Z,16.25
2022-12-15T18:47:11.762Z,18.58
2022-12-15T18:49:43.854Z,18.02
2022-12-15T18:52:21.841Z,17.95
2022-12-15T18:54:54.319Z,18.08
2022-12-15T18:57:38.095Z,21.00
2022-12-15T19:00:09.967Z,17.13
2022-12-15T19:02:42.721Z,19.17
2022-12-15T19:05:32.375Z,16.20
2022-12-15T19:08:14.973Z,17.70
2022-12-15T19:11:01.340Z,15.32
2022-12-15T19:13:36.106Z,13.32
2022-12-15T19:16:18.719Z,14.15
2022-12-15T19:19:13.796Z,13.60
2022-12-15T19:22:27.714Z,12.65
2022-12-15T19:24:59.626Z,13.95
2022-12-15T19:27:31.952Z,20.15
2022-12-15T19:30:13.741Z,25.17
2022-12-15T19:32:46.074Z,18.50
2022-12-15T19:35:17.939Z,16.23
2022-12-15T19:37:50.064Z,18.02
2022-12-15T19:40:27.707Z,16.15
2022-12-15T19:43:00.951Z,22.70
2022-12-15T19:45:33.409Z,15.05
2022-12-15T19:48:06.277Z,16.63
2022-12-15T19:50:39.709Z,15.88
2022-12-15T19:53:17.575Z,17.52
2022-12-15T19:55:49.965Z,18.55
2022-12-15T19:58:28.785Z,21.10
2022-12-15T20:01:04.820Z,19.65
2022-12-15T20:03:37.447Z,18.35
2022-12-15T20:06:22.369Z,17.67
2022-12-15T20:08:56.206Z,15.18
2022-12-15T20:11:30.987Z,14.00
2022-12-15T20:14:09.122Z,13.45
2022-12-15T20:16:41.199Z,14.52
2022-12-15T20:19:13.319Z,16.88
2022-12-15T20:21:45.249Z,18.48
2022-12-15T20:24:19.499Z,16.13
2022-12-15T20:26:51.508Z,15.10
2022-12-15T20:29:26.509Z,13.00
2022-12-15T20:31:59.378Z,14.15
2022-12-15T20:34:31.499Z,13.45
2022-12-15T20:37:04.340Z,12.55
2022-12-15T20:39:36.929Z,11.80
2022-12-15T20:42:18.308Z,12.07
2022-12-15T20:44:50.240Z,13.80
2022-12-15T20:47:26.971Z,13.93
2022-12-15T20:49:59.516Z,13.40
2022-12-15T20:52:31.593Z,13.40
2022-12-15T20:55:09.985Z,13.57
2022-12-15T20:57:42.026Z,17.00
2022-12-15T21:00:14.923Z,17.40
2022-12-15T21:02:47.534Z,17.38
2022-12-15T21:05:23.748Z,18.55
2022-12-15T21:07:55.749Z,20.17
2022-12-15T21:10:27.839Z,21.20
2022-12-15T21:12:59.737Z,20.75
2022-12-15T21:15:31.658Z,17.23
2022-12-15T21:18:46.617Z,16.50
2022-12-15T21:20:58.866Z,12.73
2022-12-15T21:23:31.856Z,11.15
2022-12-15T21:26:04.084Z,9.65
2022-12-15T21:28:36.107Z,7.88
2022-12-15T21:31:07.987Z,5.70
2022-12-15T21:33:39.974Z,6.10
2022-12-15T21:36:17.134Z,6.60
2022-12-15T21:38:51.972Z,7.57
2022-12-15T21:41:24.161Z,8.60
2022-12-15T21:43:56.106Z,8.60
2022-12-15T21:46:28.912Z,9.02
2022-12-15T21:49:18.208Z,9.27
2022-12-15T21:51:58.560Z,7.95
2022-12-15T21:54:33.155Z,7.93
2022-12-15T21:57:10.366Z,7.72
2022-12-15T21:59:42.980Z,7.97
2022-12-15T22:02:26.308Z,8.18
2022-12-15T22:04:58.441Z,7.40
2022-12-15T22:07:30.375Z,7.28
2022-12-15T22:10:02.371Z,6.63
2022-12-15T22:12:34.284Z,6.40
2022-12-15T22:15:18.612Z,6.18
2022-12-15T22:17:50.820Z,5.40
2022-12-15T22:20:24.604Z,4.80
2022-12-15T22:22:56.566Z,4.70
2022-12-15T22:25:28.497Z,4.68
2022-12-15T22:28:00.377Z,3.60
2022-12-15T22:30:32.378Z,3.75
2022-12-15T22:33:19.150Z,3.58
2022-12-15T22:35:54.887Z,3.97
2022-12-15T22:38:26.907Z,5.40
2022-12-15T22:40:59.845Z,4.25
2022-12-15T22:43:36.089Z,4.28
2022-12-15T22:46:12.461Z,4.70
2022-12-15T22:48:47.598Z,4.53
2022-12-15T22:51:19.633Z,5.15
2022-12-15T22:53:51.652Z,5.20
2022-12-15T22:56:34.396Z,4.65
2022-12-15T22:59:10.827Z,4.57
2022-12-15T23:01:43.026Z,3.83
2022-12-15T23:04:15.060Z,4.80
2022-12-15T23:06:47.074Z,4.65
2022-12-15T23:09:18.965Z,5.57
2022-12-15T23:11:50.903Z,8.05
2022-12-15T23:14:42.827Z,7.47
2022-12-15T23:17:14.796Z,6.47
2022-12-15T23:19:47.172Z,5.82
2022-12-15T23:22:19.174Z,6.15
2022-12-15T23:24:51.106Z,6.20
2022-12-15T23:27:23.774Z,6.18
2022-12-15T23:29:55.768Z,6.10
2022-12-15T23:32:27.729Z,7.47
2022-12-15T23:34:59.606Z,7.03
2022-12-15T23:37:31.516Z,7.88
2022-12-15T23:40:03.681Z,7.30
2022-12-15T23:42:35.789Z,7.07
2022-12-15T23:45:08.258Z,7.57
2022-12-15T23:47:40.732Z,7.85
2022-12-15T23:50:12.736Z,7.70
2022-12-15T23:52:47.284Z,7.35
2022-12-15T23:55:20.942Z,6.53
2022-12-15T23:57:55.973Z,7.60
